sensor_id;sensor_type;location;lat;lon;timestamp;pressure;altitude;pressure_sealevel;temperature;humidity
56340;BME280;42243;42.644;23.366;2022-07-04T00:00:27;94825.03;;;23.79;50.33
56340;BME280;42243;42.644;23.366;2022-07-04T00:02:52;94822.06;;;23.86;50.49
56340;BME280;42243;42.644;23.366;2022-07-04T00:05:18;94781.91;;;23.72;50.76
56340;BME280;42243;42.644;23.366;2022-07-04T00:07:46;94772.75;;;23.49;51.16
56340;BME280;42243;42.644;23.366;2022-07-04T00:10:13;94822.03;;;23.91;51.11
56340;BME280;42243;42.644;23.366;2022-07-04T00:12:39;94821.25;;;23.85;51.09
56340;BME280;42243;42.644;23.366;2022-07-04T00:15:06;94832.38;;;23.97;51.26
56340;BME280;42243;42.644;23.366;2022-07-04T00:17:31;94824.59;;;22.14;55.03
56340;BME280;42243;42.644;23.366;2022-07-04T00:19:57;94809.97;;;21.76;56.59
56340;BME280;42243;42.644;23.366;2022-07-04T00:22:23;94824.00;;;21.66;56.84
56340;BME280;42243;42.644;23.366;2022-07-04T00:24:49;94828.91;;;21.37;57.23
56340;BME280;42243;42.644;23.366;2022-07-04T00:27:14;94818.31;;;21.37;57.66
56340;BME280;42243;42.644;23.366;2022-07-04T00:29:40;94818.72;;;21.76;55.94
56340;BME280;42243;42.644;23.366;2022-07-04T00:32:06;94784.19;;;21.61;56.56
56340;BME280;42243;42.644;23.366;2022-07-04T00:34:31;94809.22;;;22.32;54.76
56340;BME280;42243;42.644;23.366;2022-07-04T00:36:57;94806.81;;;22.61;54.11
56340;BME280;42243;42.644;23.366;2022-07-04T00:39:22;94804.38;;;22.80;52.90
56340;BME280;42243;42.644;23.366;2022-07-04T00:41:48;94804.38;;;22.80;52.85
56340;BME280;42243;42.644;23.366;2022-07-04T00:44:14;94805.97;;;22.76;52.58
56340;BME280;42243;42.644;23.366;2022-07-04T00:46:44;94729.81;;;22.25;52.32
56340;BME280;42243;42.644;23.366;2022-07-04T00:49:11;94643.84;;;21.90;52.38
56340;BME280;42243;42.644;23.366;2022-07-04T00:51:38;94803.00;;;23.03;51.90
56340;BME280;42243;42.644;23.366;2022-07-04T00:54:05;94792.34;;;23.03;51.18
56340;BME280;42243;42.644;23.366;2022-07-04T00:56:31;94798.19;;;23.10;50.88
56340;BME280;42243;42.644;23.366;2022-07-04T00:58:57;94802.47;;;22.96;50.75
56340;BME280;42243;42.644;23.366;2022-07-04T01:01:24;94820.56;;;21.66;53.88
56340;BME280;42243;42.644;23.366;2022-07-04T01:03:50;94803.28;;;21.63;54.14
56340;BME280;42243;42.644;23.366;2022-07-04T01:06:16;94806.06;;;21.20;55.42
56340;BME280;42243;42.644;23.366;2022-07-04T01:08:44;94795.31;;;20.85;56.29
56340;BME280;42243;42.644;23.366;2022-07-04T01:11:10;94806.25;;;21.04;56.39
56340;BME280;42243;42.644;23.366;2022-07-04T01:13:36;94796.50;;;21.14;55.45
56340;BME280;42243;42.644;23.366;2022-07-04T01:16:03;94778.88;;;21.56;54.21
56340;BME280;42243;42.644;23.366;2022-07-04T01:18:29;94795.63;;;21.87;53.23
56340;BME280;42243;42.644;23.366;2022-07-04T01:20:54;94630.00;;;21.16;52.99
56340;BME280;42243;42.644;23.366;2022-07-04T01:23:20;94712.31;;;21.83;52.68
56340;BME280;42243;42.644;23.366;2022-07-04T01:25:45;94797.28;;;22.45;52.22
56340;BME280;42243;42.644;23.366;2022-07-04T01:28:11;94783.47;;;22.32;51.54
56340;BME280;42243;42.644;23.366;2022-07-04T01:30:37;94803.22;;;21.37;54.11
56340;BME280;42243;42.644;23.366;2022-07-04T01:33:03;94805.97;;;21.00;55.34
56340;BME280;42243;42.644;23.366;2022-07-04T01:35:29;94796.03;;;21.28;54.47
56340;BME280;42243;42.644;23.366;2022-07-04T01:37:55;94797.13;;;21.42;54.05
56340;BME280;42243;42.644;23.366;2022-07-04T01:40:21;94790.31;;;21.72;52.89
56340;BME280;42243;42.644;23.366;2022-07-04T01:42:46;94787.66;;;21.77;53.24
56340;BME280;42243;42.644;23.366;2022-07-04T01:45:12;94784.88;;;21.31;53.65
56340;BME280;42243;42.644;23.366;2022-07-04T01:47:39;94810.69;;;21.51;53.61
56340;BME280;42243;42.644;23.366;2022-07-04T01:50:06;94792.53;;;21.17;54.78
56340;BME280;42243;42.644;23.366;2022-07-04T01:52:32;94805.19;;;21.68;53.57
56340;BME280;42243;42.644;23.366;2022-07-04T01:54:58;94729.00;;;20.64;54.35
56340;BME280;42243;42.644;23.366;2022-07-04T01:57:23;94805.63;;;20.86;55.35
56340;BME280;42243;42.644;23.366;2022-07-04T01:59:49;94803.19;;;21.32;54.33
56340;BME280;42243;42.644;23.366;2022-07-04T02:02:33;94798.03;;;21.78;53.30
56340;BME280;42243;42.644;23.366;2022-07-04T02:04:59;94803.06;;;21.95;52.84
56340;BME280;42243;42.644;23.366;2022-07-04T02:07:24;94807.84;;;22.14;52.13
56340;BME280;42243;42.644;23.366;2022-07-04T02:09:50;94767.53;;;21.96;51.97
56340;BME280;42243;42.644;23.366;2022-07-04T02:12:15;94774.13;;;22.19;51.32
56340;BME280;42243;42.644;23.366;2022-07-04T02:14:59;94797.53;;;22.28;51.16
56340;BME280;42243;42.644;23.366;2022-07-04T02:17:24;94780.03;;;22.27;51.10
56340;BME280;42243;42.644;23.366;2022-07-04T02:19:50;94810.81;;;22.43;51.10
56340;BME280;42243;42.644;23.366;2022-07-04T02:22:15;94809.75;;;22.44;50.86
56340;BME280;42243;42.644;23.366;2022-07-04T02:24:41;94799.91;;;21.88;51.81
56340;BME280;42243;42.644;23.366;2022-07-04T02:27:07;94818.06;;;21.38;53.73
56340;BME280;42243;42.644;23.366;2022-07-04T02:29:33;94816.31;;;21.65;53.17
56340;BME280;42243;42.644;23.366;2022-07-04T02:31:59;94805.75;;;21.90;52.07
56340;BME280;42243;42.644;23.366;2022-07-04T02:34:24;94816.38;;;22.11;52.44
56340;BME280;42243;42.644;23.366;2022-07-04T02:36:51;94816.13;;;22.23;52.25
56340;BME280;42243;42.644;23.366;2022-07-04T02:39:16;94817.94;;;22.01;51.90
56340;BME280;42243;42.644;23.366;2022-07-04T02:41:42;94807.34;;;21.86;52.56
56340;BME280;42243;42.644;23.366;2022-07-04T02:44:08;94810.53;;;22.09;51.54
56340;BME280;42243;42.644;23.366;2022-07-04T02:46:34;94811.59;;;22.13;51.53
56340;BME280;42243;42.644;23.366;2022-07-04T02:49:00;94769.88;;;21.88;50.89
56340;BME280;42243;42.644;23.366;2022-07-04T02:51:26;94812.69;;;22.27;50.13
56340;BME280;42243;42.644;23.366;2022-07-04T02:53:51;94761.41;;;21.96;49.99
56340;BME280;42243;42.644;23.366;2022-07-04T02:56:17;94822.75;;;22.30;50.41
56340;BME280;42243;42.644;23.366;2022-07-04T02:58:42;94828.34;;;22.34;50.31
56340;BME280;42243;42.644;23.366;2022-07-04T03:01:08;94824.88;;;22.28;50.03
56340;BME280;42243;42.644;23.366;2022-07-04T03:03:33;94825.44;;;22.25;50.23
56340;BME280;42243;42.644;23.366;2022-07-04T03:05:59;94825.41;;;22.30;50.08
56340;BME280;42243;42.644;23.366;2022-07-04T03:08:24;94835.50;;;22.28;50.20
56340;BME280;42243;42.644;23.366;2022-07-04T03:10:50;94835.50;;;22.28;50.29
56340;BME280;42243;42.644;23.366;2022-07-04T03:13:16;94836.59;;;22.43;50.20
56340;BME280;42243;42.644;23.366;2022-07-04T03:15:42;94830.75;;;22.40;50.09
56340;BME280;42243;42.644;23.366;2022-07-04T03:18:07;94832.91;;;21.34;51.90
56340;BME280;42243;42.644;23.366;2022-07-04T03:20:32;94840.84;;;21.34;53.14
56340;BME280;42243;42.644;23.366;2022-07-04T03:22:58;94847.03;;;21.50;52.97
56340;BME280;42243;42.644;23.366;2022-07-04T03:25:23;94835.97;;;21.79;52.28
56340;BME280;42243;42.644;23.366;2022-07-04T03:27:49;94860.16;;;21.98;52.01
56340;BME280;42243;42.644;23.366;2022-07-04T03:32:40;94836.03;;;22.35;51.24
56340;BME280;42243;42.644;23.366;2022-07-04T03:35:06;94842.97;;;22.36;51.14
56340;BME280;42243;42.644;23.366;2022-07-04T03:37:31;94767.25;;;21.93;51.30
56340;BME280;42243;42.644;23.366;2022-07-04T03:39:56;94845.09;;;22.55;51.15
56340;BME280;42243;42.644;23.366;2022-07-04T03:42:22;94775.22;;;22.18;51.60
56340;BME280;42243;42.644;23.366;2022-07-04T03:44:48;94850.38;;;22.60;52.28
56340;BME280;42243;42.644;23.366;2022-07-04T03:47:14;94844.00;;;22.71;52.68
56340;BME280;42243;42.644;23.366;2022-07-04T03:49:39;94837.28;;;22.94;53.95
56340;BME280;42243;42.644;23.366;2022-07-04T03:52:05;94842.09;;;22.92;54.14
56340;BME280;42243;42.644;23.366;2022-07-04T03:54:30;94835.44;;;22.90;54.31
56340;BME280;42243;42.644;23.366;2022-07-04T03:56:56;94834.38;;;22.96;54.44
56340;BME280;42243;42.644;23.366;2022-07-04T03:59:21;94833.31;;;23.02;54.05
56340;BME280;42243;42.644;23.366;2022-07-04T04:01:47;94747.84;;;22.44;54.34
56340;BME280;42243;42.644;23.366;2022-07-04T04:04:12;94829.34;;;22.89;54.42
56340;BME280;42243;42.644;23.366;2022-07-04T04:06:56;94835.41;;;22.95;54.62
56340;BME280;42243;42.644;23.366;2022-07-04T04:09:21;94788.44;;;22.70;55.08
56340;BME280;42243;42.644;23.366;2022-07-04T04:11:49;94836.47;;;23.09;55.31
56340;BME280;42243;42.644;23.366;2022-07-04T04:14:15;94774.59;;;22.78;55.41
56340;BME280;42243;42.644;23.366;2022-07-04T04:16:40;94833.84;;;22.94;54.33
56340;BME280;42243;42.644;23.366;2022-07-04T04:19:07;94809.13;;;22.93;54.28
56340;BME280;42243;42.644;23.366;2022-07-04T04:21:33;94827.41;;;23.15;51.44
56340;BME280;42243;42.644;23.366;2022-07-04T04:23:58;94835.69;;;23.14;49.95
56340;BME280;42243;42.644;23.366;2022-07-04T04:26:23;94810.69;;;22.94;49.85
56340;BME280;42243;42.644;23.366;2022-07-04T04:28:49;94843.41;;;23.05;49.84
56340;BME280;42243;42.644;23.366;2022-07-04T04:31:14;94780.72;;;21.45;52.22
56340;BME280;42243;42.644;23.366;2022-07-04T04:33:42;94851.94;;;22.10;52.33
56340;BME280;42243;42.644;23.366;2022-07-04T04:36:07;94752.91;;;21.89;51.74
56340;BME280;42243;42.644;23.366;2022-07-04T04:38:33;94859.38;;;22.74;50.80
56340;BME280;42243;42.644;23.366;2022-07-04T04:40:58;94847.69;;;22.80;50.80
56340;BME280;42243;42.644;23.366;2022-07-04T04:43:24;94845.28;;;22.89;50.70
56340;BME280;42243;42.644;23.366;2022-07-04T04:45:49;94851.38;;;23.05;50.32
56340;BME280;42243;42.644;23.366;2022-07-04T04:48:14;94859.34;;;23.05;50.46
56340;BME280;42243;42.644;23.366;2022-07-04T04:50:40;94859.34;;;23.05;50.27
56340;BME280;42243;42.644;23.366;2022-07-04T04:53:05;94854.00;;;23.20;50.30
56340;BME280;42243;42.644;23.366;2022-07-04T04:55:30;94853.75;;;23.17;50.18
56340;BME280;42243;42.644;23.366;2022-07-04T04:57:56;94857.22;;;23.07;50.58
56340;BME280;42243;42.644;23.366;2022-07-04T05:00:21;94864.13;;;23.18;50.83
56340;BME280;42243;42.644;23.366;2022-07-04T05:02:47;94854.00;;;23.26;51.47
56340;BME280;42243;42.644;23.366;2022-07-04T05:05:12;94848.38;;;23.32;51.49
56340;BME280;42243;42.644;23.366;2022-07-04T05:07:37;94767.41;;;22.84;51.46
56340;BME280;42243;42.644;23.366;2022-07-04T05:10:03;94857.63;;;23.50;51.40
56340;BME280;42243;42.644;23.366;2022-07-04T05:12:29;94849.59;;;23.60;51.46
56340;BME280;42243;42.644;23.366;2022-07-04T05:14:55;94853.25;;;23.70;51.62
56340;BME280;42243;42.644;23.366;2022-07-04T05:17:21;94841.00;;;23.79;51.25
56340;BME280;42243;42.644;23.366;2022-07-04T05:19:46;94832.22;;;23.73;51.61
56340;BME280;42243;42.644;23.366;2022-07-04T05:22:13;94842.50;;;23.90;51.56
56340;BME280;42243;42.644;23.366;2022-07-04T05:24:39;94831.38;;;23.83;51.88
56340;BME280;42243;42.644;23.366;2022-07-04T05:27:06;94845.06;;;24.11;50.82
56340;BME280;42243;42.644;23.366;2022-07-04T05:29:32;94844.41;;;24.29;49.62
56340;BME280;42243;42.644;23.366;2022-07-04T05:31:57;94840.91;;;24.29;49.00
56340;BME280;42243;42.644;23.366;2022-07-04T05:34:23;94750.72;;;23.83;48.12
56340;BME280;42243;42.644;23.366;2022-07-04T05:36:49;94822.41;;;24.43;48.16
56340;BME280;42243;42.644;23.366;2022-07-04T05:39:14;94851.94;;;25.10;46.88
56340;BME280;42243;42.644;23.366;2022-07-04T05:41:40;94805.53;;;25.54;45.02
56340;BME280;42243;42.644;23.366;2022-07-04T05:44:05;94847.19;;;26.83;43.11
56340;BME280;42243;42.644;23.366;2022-07-04T05:46:31;94834.63;;;27.66;41.14
56340;BME280;42243;42.644;23.366;2022-07-04T05:48:56;94805.72;;;28.13;40.09
56340;BME280;42243;42.644;23.366;2022-07-04T05:51:22;94775.56;;;28.93;38.07
56340;BME280;42243;42.644;23.366;2022-07-04T05:53:47;94788.75;;;29.61;36.68
56340;BME280;42243;42.644;23.366;2022-07-04T05:56:13;94783.66;;;30.64;34.54
56340;BME280;42243;42.644;23.366;2022-07-04T05:58:39;94827.41;;;30.99;33.41
56340;BME280;42243;42.644;23.366;2022-07-04T06:01:05;94793.84;;;31.35;32.78
56340;BME280;42243;42.644;23.366;2022-07-04T06:03:31;94807.78;;;31.88;31.67
56340;BME280;42243;42.644;23.366;2022-07-04T06:05:56;94808.13;;;32.28;30.42
56340;BME280;42243;42.644;23.366;2022-07-04T06:08:22;94779.75;;;33.50;28.83
56340;BME280;42243;42.644;23.366;2022-07-04T06:10:48;94818.06;;;34.46;27.76
56340;BME280;42243;42.644;23.366;2022-07-04T06:13:14;94848.03;;;34.97;27.70
56340;BME280;42243;42.644;23.366;2022-07-04T06:15:40;94837.66;;;35.98;26.07
56340;BME280;42243;42.644;23.366;2022-07-04T06:18:05;94842.78;;;36.58;25.18
56340;BME280;42243;42.644;23.366;2022-07-04T06:20:30;94840.19;;;37.08;24.64
56340;BME280;42243;42.644;23.366;2022-07-04T06:22:56;94839.84;;;37.82;24.06
56340;BME280;42243;42.644;23.366;2022-07-04T06:25:22;94837.84;;;38.36;23.49
56340;BME280;42243;42.644;23.366;2022-07-04T06:27:48;94835.03;;;38.59;22.41
56340;BME280;42243;42.644;23.366;2022-07-04T06:30:14;94784.94;;;38.71;22.52
56340;BME280;42243;42.644;23.366;2022-07-04T06:32:46;94830.16;;;39.65;21.14
56340;BME280;42243;42.644;23.366;2022-07-04T06:35:13;94837.38;;;38.98;22.22
56340;BME280;42243;42.644;23.366;2022-07-04T06:37:57;94833.97;;;39.53;21.82
56340;BME280;42243;42.644;23.366;2022-07-04T06:40:23;94830.34;;;40.78;20.26
56340;BME280;42243;42.644;23.366;2022-07-04T06:42:49;94822.97;;;41.39;19.83
56340;BME280;42243;42.644;23.366;2022-07-04T06:45:15;94822.91;;;41.82;19.20
56340;BME280;42243;42.644;23.366;2022-07-04T06:47:41;94826.06;;;41.70;19.33
56340;BME280;42243;42.644;23.366;2022-07-04T06:50:07;94782.19;;;41.99;18.75
56340;BME280;42243;42.644;23.366;2022-07-04T06:52:33;94798.63;;;42.06;18.83
56340;BME280;42243;42.644;23.366;2022-07-04T06:54:59;94783.81;;;42.70;18.24
56340;BME280;42243;42.644;23.366;2022-07-04T06:57:25;94799.09;;;44.14;17.19
56340;BME280;42243;42.644;23.366;2022-07-04T06:59:51;94824.75;;;45.70;16.15
56340;BME280;42243;42.644;23.366;2022-07-04T07:02:16;94816.78;;;46.76;15.10
56340;BME280;42243;42.644;23.366;2022-07-04T07:04:41;94800.09;;;47.00;14.78
56340;BME280;42243;42.644;23.366;2022-07-04T07:07:08;94810.88;;;47.76;14.94
56340;BME280;42243;42.644;23.366;2022-07-04T07:09:33;94810.41;;;47.94;13.84
56340;BME280;42243;42.644;23.366;2022-07-04T07:11:59;94809.13;;;48.41;13.56
56340;BME280;42243;42.644;23.366;2022-07-04T07:14:24;94768.19;;;48.87;13.00
56340;BME280;42243;42.644;23.366;2022-07-04T07:16:50;94777.78;;;49.81;12.86
56340;BME280;42243;42.644;23.366;2022-07-04T07:19:15;94797.97;;;50.79;12.64
56340;BME280;42243;42.644;23.366;2022-07-04T07:21:40;94788.34;;;50.71;12.09
56340;BME280;42243;42.644;23.366;2022-07-04T07:24:06;94765.66;;;50.32;12.39
56340;BME280;42243;42.644;23.366;2022-07-04T07:26:31;94755.44;;;50.92;12.18
56340;BME280;42243;42.644;23.366;2022-07-04T07:28:56;94751.84;;;51.32;12.43
56340;BME280;42243;42.644;23.366;2022-07-04T07:31:22;94789.72;;;51.07;12.58
56340;BME280;42243;42.644;23.366;2022-07-04T07:33:47;94785.81;;;51.45;11.98
56340;BME280;42243;42.644;23.366;2022-07-04T07:36:13;94771.31;;;51.50;12.08
56340;BME280;42243;42.644;23.366;2022-07-04T07:38:38;94779.13;;;49.29;13.43
56340;BME280;42243;42.644;23.366;2022-07-04T07:41:07;94789.09;;;51.03;12.73
56340;BME280;42243;42.644;23.366;2022-07-04T07:43:33;94750.19;;;46.74;14.50
56340;BME280;42243;42.644;23.366;2022-07-04T07:45:58;94783.63;;;43.93;17.91
56340;BME280;42243;42.644;23.366;2022-07-04T07:48:24;94790.53;;;43.70;17.55
56340;BME280;42243;42.644;23.366;2022-07-04T07:50:49;94711.66;;;45.57;16.41
56340;BME280;42243;42.644;23.366;2022-07-04T07:53:15;94775.00;;;47.60;14.84
56340;BME280;42243;42.644;23.366;2022-07-04T07:55:41;94781.66;;;47.29;15.35
56340;BME280;42243;42.644;23.366;2022-07-04T07:58:07;94778.22;;;47.25;15.64
56340;BME280;42243;42.644;23.366;2022-07-04T08:00:32;94770.06;;;42.81;19.23
56340;BME280;42243;42.644;23.366;2022-07-04T08:02:58;94775.41;;;44.54;17.58
56340;BME280;42243;42.644;23.366;2022-07-04T08:05:41;94777.72;;;43.08;18.54
56340;BME280;42243;42.644;23.366;2022-07-04T08:08:07;94725.09;;;42.68;18.55
56340;BME280;42243;42.644;23.366;2022-07-04T08:10:35;94772.72;;;36.67;24.87
56340;BME280;42243;42.644;23.366;2022-07-04T08:13:01;94725.94;;;37.54;23.77
56340;BME280;42243;42.644;23.366;2022-07-04T08:15:26;94766.84;;;38.18;23.93
56340;BME280;42243;42.644;23.366;2022-07-04T08:17:52;94776.72;;;38.03;24.72
56340;BME280;42243;42.644;23.366;2022-07-04T08:20:18;94708.56;;;35.78;26.19
56340;BME280;42243;42.644;23.366;2022-07-04T08:22:43;94719.69;;;37.00;25.12
56340;BME280;42243;42.644;23.366;2022-07-04T08:25:09;94766.13;;;37.64;26.01
56340;BME280;42243;42.644;23.366;2022-07-04T08:27:34;94782.09;;;38.26;24.57
56340;BME280;42243;42.644;23.366;2022-07-04T08:30:00;94762.59;;;34.11;28.36
56340;BME280;42243;42.644;23.366;2022-07-04T08:32:25;94699.72;;;32.72;30.63
56340;BME280;42243;42.644;23.366;2022-07-04T08:34:51;94757.69;;;32.53;31.57
56340;BME280;42243;42.644;23.366;2022-07-04T08:37:17;94761.19;;;32.54;31.54
56340;BME280;42243;42.644;23.366;2022-07-04T08:39:43;94768.19;;;32.55;32.01
56340;BME280;42243;42.644;23.366;2022-07-04T08:42:16;94763.44;;;30.96;34.57
56340;BME280;42243;42.644;23.366;2022-07-04T08:44:50;94693.94;;;31.19;34.18
56340;BME280;42243;42.644;23.366;2022-07-04T08:47:21;94765.00;;;32.20;33.02
56340;BME280;42243;42.644;23.366;2022-07-04T08:49:54;94761.06;;;33.08;31.87
56340;BME280;42243;42.644;23.366;2022-07-04T08:52:32;94765.88;;;30.71;36.13
56340;BME280;42243;42.644;23.366;2022-07-04T08:55:01;94697.72;;;30.97;34.94
56340;BME280;42243;42.644;23.366;2022-07-04T08:57:46;94757.91;;;32.15;34.62
56340;BME280;42243;42.644;23.366;2022-07-04T09:00:30;94735.78;;;31.88;34.32
56340;BME280;42243;42.644;23.366;2022-07-04T09:02:56;94711.41;;;32.76;33.04
56340;BME280;42243;42.644;23.366;2022-07-04T09:05:24;94693.88;;;31.91;33.79
56340;BME280;42243;42.644;23.366;2022-07-04T09:07:50;94737.72;;;31.79;35.30
56340;BME280;42243;42.644;23.366;2022-07-04T09:10:16;94755.81;;;32.66;33.89
56340;BME280;42243;42.644;23.366;2022-07-04T09:12:41;94708.16;;;32.83;32.42
56340;BME280;42243;42.644;23.366;2022-07-04T09:15:07;94682.81;;;33.37;32.13
56340;BME280;42243;42.644;23.366;2022-07-04T09:17:33;94706.13;;;33.82;31.06
56340;BME280;42243;42.644;23.366;2022-07-04T09:20:18;94755.53;;;33.66;31.98
56340;BME280;42243;42.644;23.366;2022-07-04T09:22:45;94754.06;;;33.44;32.93
56340;BME280;42243;42.644;23.366;2022-07-04T09:25:11;94750.53;;;34.09;31.47
56340;BME280;42243;42.644;23.366;2022-07-04T09:27:41;94704.66;;;31.28;35.40
56340;BME280;42243;42.644;23.366;2022-07-04T09:30:10;94757.81;;;30.71;37.52
56340;BME280;42243;42.644;23.366;2022-07-04T09:32:44;94734.03;;;30.09;38.22
56340;BME280;42243;42.644;23.366;2022-07-04T09:35:18;94749.81;;;30.54;37.55
56340;BME280;42243;42.644;23.366;2022-07-04T09:37:45;94748.66;;;31.02;37.22
56340;BME280;42243;42.644;23.366;2022-07-04T09:40:36;94746.56;;;31.88;36.46
56340;BME280;42243;42.644;23.366;2022-07-04T09:43:22;94715.22;;;32.17;35.11
56340;BME280;42243;42.644;23.366;2022-07-04T09:45:55;94735.38;;;32.65;33.92
56340;BME280;42243;42.644;23.366;2022-07-04T09:48:21;94736.22;;;32.11;34.53
56340;BME280;42243;42.644;23.366;2022-07-04T09:50:46;94667.34;;;32.14;35.11
56340;BME280;42243;42.644;23.366;2022-07-04T09:53:12;94689.69;;;32.60;34.63
56340;BME280;42243;42.644;23.366;2022-07-04T09:55:39;94732.69;;;32.78;34.74
56340;BME280;42243;42.644;23.366;2022-07-04T09:58:12;94730.00;;;33.15;32.72
56340;BME280;42243;42.644;23.366;2022-07-04T10:00:39;94731.59;;;33.16;32.59
56340;BME280;42243;42.644;23.366;2022-07-04T10:03:24;94722.31;;;33.29;32.59
56340;BME280;42243;42.644;23.366;2022-07-04T10:06:11;94682.97;;;33.16;33.33
56340;BME280;42243;42.644;23.366;2022-07-04T10:08:37;94702.38;;;33.46;32.43
56340;BME280;42243;42.644;23.366;2022-07-04T10:11:05;94717.69;;;33.66;32.92
56340;BME280;42243;42.644;23.366;2022-07-04T10:13:30;94646.47;;;33.22;32.86
56340;BME280;42243;42.644;23.366;2022-07-04T10:15:56;94733.84;;;33.79;32.85
56340;BME280;42243;42.644;23.366;2022-07-04T10:18:23;94673.66;;;33.41;32.56
56340;BME280;42243;42.644;23.366;2022-07-04T10:20:50;94739.13;;;33.87;32.31
56340;BME280;42243;42.644;23.366;2022-07-04T10:23:16;94734.31;;;33.81;31.68
56340;BME280;42243;42.644;23.366;2022-07-04T10:25:45;94722.84;;;34.00;32.30
56340;BME280;42243;42.644;23.366;2022-07-04T10:28:11;94697.09;;;34.06;32.16
56340;BME280;42243;42.644;23.366;2022-07-04T10:30:37;94721.91;;;34.08;31.63
56340;BME280;42243;42.644;23.366;2022-07-04T10:33:06;94718.91;;;33.97;32.06
56340;BME280;42243;42.644;23.366;2022-07-04T10:35:53;94726.78;;;33.62;31.34
56340;BME280;42243;42.644;23.366;2022-07-04T10:38:29;94732.88;;;33.59;32.69
56340;BME280;42243;42.644;23.366;2022-07-04T10:40:57;94713.53;;;33.44;32.02
56340;BME280;42243;42.644;23.366;2022-07-04T10:48:28;94716.94;;;33.17;32.09
56340;BME280;42243;42.644;23.366;2022-07-04T10:51:04;94677.63;;;33.07;31.92
56340;BME280;42243;42.644;23.366;2022-07-04T10:53:31;94634.69;;;31.40;33.88
56340;BME280;42243;42.644;23.366;2022-07-04T10:58:51;94678.00;;;30.46;36.54
56340;BME280;42243;42.644;23.366;2022-07-04T11:01:17;94679.69;;;31.61;34.82
56340;BME280;42243;42.644;23.366;2022-07-04T11:03:49;94679.78;;;31.85;34.07
56340;BME280;42243;42.644;23.366;2022-07-04T11:06:50;94701.16;;;32.11;33.42
56340;BME280;42243;42.644;23.366;2022-07-04T11:09:24;94693.94;;;32.03;34.13
56340;BME280;42243;42.644;23.366;2022-07-04T11:11:56;94684.88;;;32.08;34.25
56340;BME280;42243;42.644;23.366;2022-07-04T11:16:57;94655.38;;;31.69;33.65
56340;BME280;42243;42.644;23.366;2022-07-04T11:19:22;94615.28;;;31.68;33.70
56340;BME280;42243;42.644;23.366;2022-07-04T11:21:48;94678.47;;;32.12;34.24
56340;BME280;42243;42.644;23.366;2022-07-04T11:24:14;94647.81;;;31.63;34.66
56340;BME280;42243;42.644;23.366;2022-07-04T11:26:39;94644.94;;;31.68;34.05
56340;BME280;42243;42.644;23.366;2022-07-04T11:29:05;94635.47;;;31.62;34.10
56340;BME280;42243;42.644;23.366;2022-07-04T11:31:38;94633.97;;;31.85;34.17
56340;BME280;42243;42.644;23.366;2022-07-04T11:34:04;94611.44;;;31.35;34.44
56340;BME280;42243;42.644;23.366;2022-07-04T11:36:29;94678.56;;;32.04;34.09
56340;BME280;42243;42.644;23.366;2022-07-04T11:38:59;94684.41;;;32.06;34.29
56340;BME280;42243;42.644;23.366;2022-07-04T11:41:36;94619.44;;;31.65;33.86
56340;BME280;42243;42.644;23.366;2022-07-04T11:44:22;94681.81;;;32.09;34.10
56340;BME280;42243;42.644;23.366;2022-07-04T11:47:21;94675.97;;;32.07;34.58
56340;BME280;42243;42.644;23.366;2022-07-04T11:49:57;94621.38;;;31.77;34.59
56340;BME280;42243;42.644;23.366;2022-07-04T11:52:26;94576.97;;;31.62;35.24
56340;BME280;42243;42.644;23.366;2022-07-04T11:54:52;94638.13;;;31.49;35.86
56340;BME280;42243;42.644;23.366;2022-07-04T11:57:29;94653.94;;;32.05;34.67
56340;BME280;42243;42.644;23.366;2022-07-04T12:00:00;94591.94;;;31.72;34.75
56340;BME280;42243;42.644;23.366;2022-07-04T12:02:27;94640.84;;;32.16;34.63
56340;BME280;42243;42.644;23.366;2022-07-04T12:04:54;94643.53;;;32.16;34.23
56340;BME280;42243;42.644;23.366;2022-07-04T12:07:21;94641.19;;;32.27;34.42
56340;BME280;42243;42.644;23.366;2022-07-04T12:09:48;94635.94;;;32.55;34.78
56340;BME280;42243;42.644;23.366;2022-07-04T12:12:14;94591.59;;;32.19;34.52
56340;BME280;42243;42.644;23.366;2022-07-04T12:17:44;94629.63;;;32.39;35.22
56340;BME280;42243;42.644;23.366;2022-07-04T12:20:14;94637.94;;;32.58;33.93
56340;BME280;42243;42.644;23.366;2022-07-04T12:22:49;94630.97;;;32.82;34.02
56340;BME280;42243;42.644;23.366;2022-07-04T12:25:33;94581.78;;;30.43;37.16
56340;BME280;42243;42.644;23.366;2022-07-04T12:28:10;94536.09;;;31.27;36.22
56340;BME280;42243;42.644;23.366;2022-07-04T12:30:37;94621.63;;;31.84;35.30
56340;BME280;42243;42.644;23.366;2022-07-04T12:33:06;94596.31;;;30.71;37.52
56340;BME280;42243;42.644;23.366;2022-07-04T12:38:06;94580.16;;;30.50;37.56
56340;BME280;42243;42.644;23.366;2022-07-04T12:40:33;94610.72;;;31.47;36.59
56340;BME280;42243;42.644;23.366;2022-07-04T12:42:59;94624.09;;;31.89;36.16
56340;BME280;42243;42.644;23.366;2022-07-04T12:45:25;94620.25;;;32.36;35.54
56340;BME280;42243;42.644;23.366;2022-07-04T12:47:51;94617.13;;;31.88;35.81
56340;BME280;42243;42.644;23.366;2022-07-04T12:50:26;94528.94;;;31.89;35.44
56340;BME280;42243;42.644;23.366;2022-07-04T12:52:52;94623.09;;;32.64;35.10
56340;BME280;42243;42.644;23.366;2022-07-04T12:55:18;94571.81;;;32.27;34.95
56340;BME280;42243;42.644;23.366;2022-07-04T12:57:43;94608.25;;;32.46;35.15
56340;BME280;42243;42.644;23.366;2022-07-04T13:00:09;94577.38;;;31.52;36.36
56340;BME280;42243;42.644;23.366;2022-07-04T13:02:34;94547.34;;;31.74;35.87
56340;BME280;42243;42.644;23.366;2022-07-04T13:05:00;94619.94;;;32.74;34.74
56340;BME280;42243;42.644;23.366;2022-07-04T13:07:25;94612.63;;;32.87;34.38
56340;BME280;42243;42.644;23.366;2022-07-04T13:09:50;94609.38;;;32.32;35.34